createdAt,value
2019-02-22T00:00:59.299Z,30.08
2019-02-22T00:03:30.350Z,30.08
2019-02-22T00:06:01.503Z,30.68
2019-02-22T00:08:32.265Z,30.25
2019-02-22T00:11:03.066Z,31.45
2019-02-22T00:13:33.843Z,31.02
2019-02-22T00:16:04.677Z,31.97
2019-02-22T00:18:35.794Z,32.48
2019-02-22T00:21:06.946Z,32.03
2019-02-22T00:23:37.766Z,33.53
2019-02-22T00:26:11.027Z,31.23
2019-02-22T00:28:41.033Z,33.55
2019-02-22T00:31:11.812Z,31.73
2019-02-22T00:33:42.629Z,33.18
2019-02-22T00:36:14.048Z,30.82
2019-02-22T00:38:44.973Z,32.40
2019-02-22T00:41:15.754Z,33.85
2019-02-22T00:43:46.554Z,33.00
2019-02-22T00:46:17.587Z,32.33
2019-02-22T00:48:48.399Z,35.25
2019-02-22T00:51:19.174Z,32.95
2019-02-22T00:53:50.308Z,32.40
2019-02-22T00:56:21.087Z,31.48
2019-02-22T00:58:51.901Z,33.38
2019-02-22T01:01:22.674Z,31.15
2019-02-22T01:03:53.482Z,31.62
2019-02-22T01:06:24.263Z,32.90
2019-02-22T01:08:55.052Z,30.55
2019-02-22T01:11:25.831Z,30.77
2019-02-22T01:13:56.626Z,31.10
2019-02-22T01:16:27.661Z,31.77
2019-02-22T01:18:58.453Z,31.97
2019-02-22T01:21:29.539Z,31.23
2019-02-22T01:24:00.340Z,30.95
2019-02-22T01:26:31.101Z,32.30
2019-02-22T01:29:02.162Z,31.27
2019-02-22T01:31:33.327Z,31.17
2019-02-22T01:34:04.459Z,31.75
2019-02-22T01:36:35.255Z,31.60
2019-02-22T01:39:06.422Z,29.77
2019-02-22T01:41:37.589Z,32.67
2019-02-22T01:44:19.189Z,31.90
2019-02-22T01:46:50.319Z,32.58
2019-02-22T01:49:21.087Z,32.85
2019-02-22T01:51:51.895Z,33.75
2019-02-22T01:54:22.663Z,31.73
2019-02-22T01:56:53.784Z,33.35
2019-02-22T01:59:24.571Z,33.75
2019-02-22T02:01:55.380Z,35.10
2019-02-22T02:04:26.515Z,34.67
2019-02-22T02:06:57.658Z,32.90
2019-02-22T02:09:29.106Z,33.92
2019-02-22T02:12:01.816Z,33.42
2019-02-22T02:14:32.385Z,33.60
2019-02-22T02:17:03.236Z,32.23
2019-02-22T02:19:34.290Z,31.90
2019-02-22T02:22:05.097Z,34.50
2019-02-22T02:24:36.184Z,33.33
2019-02-22T02:27:07.055Z,32.28
2019-02-22T02:29:37.829Z,33.15
2019-02-22T02:32:08.926Z,32.00
2019-02-22T02:34:39.675Z,32.13
2019-02-22T02:37:10.795Z,30.77
2019-02-22T02:39:41.571Z,31.52
2019-02-22T02:42:12.352Z,31.05
2019-02-22T02:44:43.118Z,30.85
2019-02-22T02:47:14.240Z,31.95
2019-02-22T02:49:45.291Z,32.85
2019-02-22T02:52:16.111Z,31.35
2019-02-22T02:54:46.866Z,31.57
2019-02-22T02:57:17.661Z,31.45
2019-02-22T02:59:48.442Z,29.25
2019-02-22T03:02:20.888Z,31.42
2019-02-22T03:04:51.667Z,31.82
2019-02-22T03:07:40.929Z,28.75
2019-02-22T03:10:11.676Z,29.55
2019-02-22T03:12:42.476Z,31.55
2019-02-22T03:15:16.602Z,28.12
2019-02-22T03:17:47.402Z,30.23
2019-02-22T03:20:18.482Z,28.90
2019-02-22T03:22:49.289Z,30.27
2019-02-22T03:25:20.076Z,28.57
2019-02-22T03:27:51.206Z,29.85
2019-02-22T03:30:22.256Z,30.25
2019-02-22T03:32:53.539Z,31.42
2019-02-22T03:35:24.754Z,29.75
2019-02-22T03:37:55.815Z,29.55
2019-02-22T03:40:26.617Z,29.07
2019-02-22T03:42:57.676Z,31.05
2019-02-22T03:45:28.520Z,29.60
2019-02-22T03:47:59.561Z,30.62
2019-02-22T03:50:30.535Z,31.48
2019-02-22T03:53:08.936Z,31.35
2019-02-22T03:55:40.050Z,30.32
2019-02-22T03:58:10.958Z,30.37
2019-02-22T04:00:42.146Z,30.35
2019-02-22T04:03:12.937Z,31.05
2019-02-22T04:05:43.727Z,29.55
2019-02-22T04:08:14.490Z,31.50
2019-02-22T04:10:45.319Z,29.23
2019-02-22T04:13:16.071Z,31.27
2019-02-22T04:15:47.187Z,32.70
2019-02-22T04:18:17.949Z,32.75
2019-02-22T04:20:48.745Z,28.67
2019-02-22T04:23:19.530Z,29.63
2019-02-22T04:25:50.640Z,30.95
2019-02-22T04:28:21.406Z,29.02
2019-02-22T04:30:52.214Z,28.70
2019-02-22T04:33:23.273Z,29.23
2019-02-22T04:35:54.075Z,29.82
2019-02-22T04:38:25.146Z,29.98
2019-02-22T04:40:55.963Z,28.47
2019-02-22T04:43:26.735Z,30.23
2019-02-22T04:45:57.525Z,29.77
2019-02-22T04:48:28.308Z,28.87
2019-02-22T04:50:59.201Z,28.38
2019-02-22T04:53:29.987Z,26.45
2019-02-22T04:56:01.121Z,30.25
2019-02-22T04:58:31.878Z,30.10
2019-02-22T05:01:02.703Z,29.48
2019-02-22T05:03:33.505Z,27.87
2019-02-22T05:06:04.582Z,29.75
2019-02-22T05:08:35.353Z,29.02
2019-02-22T05:11:06.187Z,29.15
2019-02-22T05:13:37.037Z,26.45
2019-02-22T05:16:08.138Z,28.73
2019-02-22T05:18:38.941Z,27.17
2019-02-22T05:21:09.718Z,27.48
2019-02-22T05:23:40.527Z,27.20
2019-02-22T05:26:11.307Z,26.82
2019-02-22T05:28:42.114Z,27.13
2019-02-22T05:31:13.174Z,26.90
2019-02-22T05:33:44.318Z,27.93
2019-02-22T05:36:15.108Z,27.05
2019-02-22T05:38:46.224Z,26.27
2019-02-22T05:41:17.001Z,28.23
2019-02-22T05:43:48.092Z,27.02
2019-02-22T05:46:18.858Z,26.55
2019-02-22T05:48:49.698Z,26.07
2019-02-22T05:51:20.531Z,25.20
2019-02-22T05:53:51.347Z,25.10
2019-02-22T05:56:22.127Z,24.85
2019-02-22T05:58:53.235Z,25.45
2019-02-22T06:01:24.267Z,24.75
2019-02-22T06:03:55.095Z,24.77
2019-02-22T06:06:25.868Z,26.75
2019-02-22T06:08:56.679Z,27.17
2019-02-22T06:11:27.475Z,28.42
2019-02-22T06:13:58.249Z,26.80
2019-02-22T06:16:29.303Z,26.73
2019-02-22T06:19:00.103Z,28.35
2019-02-22T06:21:30.910Z,28.75
2019-02-22T06:24:02.835Z,28.92
2019-02-22T06:26:34.294Z,29.07
2019-02-22T06:29:05.090Z,30.02
2019-02-22T06:31:35.906Z,27.85
2019-02-22T06:34:07.369Z,27.95
2019-02-22T06:36:38.480Z,28.90
2019-02-22T06:39:09.246Z,30.23
2019-02-22T06:41:40.061Z,30.45
2019-02-22T06:44:12.019Z,31.48
2019-02-22T06:46:43.270Z,30.32
2019-02-22T06:49:14.319Z,31.80
2019-02-22T06:51:45.105Z,32.30
2019-02-22T06:54:16.187Z,31.00
2019-02-22T06:56:47.047Z,30.17
2019-02-22T06:59:17.849Z,29.75
2019-02-22T07:01:49.986Z,31.70
2019-02-22T07:04:21.106Z,31.60
2019-02-22T07:06:51.907Z,31.37
2019-02-22T07:09:22.686Z,30.97
2019-02-22T07:11:55.120Z,32.17
2019-02-22T07:14:25.891Z,30.95
2019-02-22T07:16:56.702Z,31.30
2019-02-22T07:19:27.751Z,33.75
2019-02-22T07:21:58.555Z,32.60
2019-02-22T07:24:29.645Z,30.97
2019-02-22T07:27:00.452Z,30.62
2019-02-22T07:29:31.248Z,31.10
2019-02-22T07:32:06.023Z,31.73
2019-02-22T07:34:34.834Z,31.23
2019-02-22T07:37:05.594Z,31.40
2019-02-22T07:39:36.426Z,31.77
2019-02-22T07:42:07.186Z,33.58
2019-02-22T07:44:38.296Z,31.80
2019-02-22T07:47:09.071Z,32.00
2019-02-22T07:49:39.870Z,32.80
2019-02-22T07:52:10.646Z,34.60
2019-02-22T07:54:41.466Z,33.08
2019-02-22T07:57:12.242Z,35.05
2019-02-22T07:59:43.047Z,33.28
2019-02-22T08:02:13.825Z,35.03
2019-02-22T08:04:44.622Z,32.58
2019-02-22T08:07:15.422Z,33.13
2019-02-22T08:09:46.221Z,32.00
2019-02-22T08:12:16.997Z,35.33
2019-02-22T08:14:48.145Z,34.60
2019-02-22T08:17:19.308Z,34.92
2019-02-22T08:19:50.555Z,34.05
2019-02-22T08:22:21.417Z,34.92
2019-02-22T08:24:52.246Z,33.53
2019-02-22T08:27:23.275Z,32.55
2019-02-22T08:29:54.422Z,33.18
2019-02-22T08:32:25.197Z,33.45
2019-02-22T08:34:56.321Z,34.00
2019-02-22T08:37:27.352Z,33.70
2019-02-22T08:39:58.991Z,32.05
2019-02-22T08:42:29.837Z,32.93
2019-02-22T08:45:00.615Z,35.25
2019-02-22T08:47:31.411Z,34.08
2019-02-22T08:50:02.483Z,34.10
2019-02-22T08:52:33.271Z,33.83
2019-02-22T08:55:05.287Z,33.33
2019-02-22T08:57:36.093Z,32.75
2019-02-22T09:00:10.290Z,33.55
2019-02-22T09:02:41.150Z,34.98
2019-02-22T09:05:12.230Z,33.88
2019-02-22T09:07:43.355Z,35.68
2019-02-22T09:10:14.158Z,33.75
2019-02-22T09:12:44.971Z,34.63
2019-02-22T09:15:16.081Z,35.25
2019-02-22T09:17:46.890Z,35.80
2019-02-22T09:20:17.667Z,35.98
2019-02-22T09:22:48.481Z,34.35
2019-02-22T09:25:19.638Z,36.83
2019-02-22T09:27:50.453Z,34.13
2019-02-22T09:30:21.524Z,33.92
2019-02-22T09:32:52.575Z,34.58
2019-02-22T09:35:23.385Z,34.48
2019-02-22T09:37:54.186Z,35.03
2019-02-22T09:40:24.970Z,32.05
2019-02-22T09:42:56.127Z,32.30
2019-02-22T09:45:26.908Z,34.20
2019-02-22T09:47:57.727Z,34.13
2019-02-22T09:50:28.518Z,34.23
2019-02-22T09:52:59.324Z,33.45
2019-02-22T09:55:30.426Z,33.25
2019-02-22T09:58:01.254Z,32.95
2019-02-22T10:00:32.038Z,31.97
2019-02-22T10:03:02.850Z,32.65
2019-02-22T10:05:33.684Z,32.63
2019-02-22T10:08:04.457Z,33.38
2019-02-22T10:10:35.569Z,31.80
2019-02-22T10:13:06.612Z,32.83
2019-02-22T10:15:37.415Z,32.42
2019-02-22T10:18:08.500Z,31.15
2019-02-22T10:20:39.642Z,32.03
2019-02-22T10:23:10.425Z,31.95
2019-02-22T10:25:41.249Z,31.25
2019-02-22T10:28:17.796Z,32.25
2019-02-22T10:30:45.152Z,29.45
2019-02-22T10:33:15.946Z,32.25
2019-02-22T10:35:47.066Z,30.85
2019-02-22T10:38:18.271Z,30.88
2019-02-22T10:40:49.097Z,27.98
2019-02-22T10:43:20.278Z,30.60
2019-02-22T10:45:51.053Z,30.62
2019-02-22T10:48:21.874Z,31.65
2019-02-22T10:50:52.978Z,30.77
2019-02-22T10:53:24.127Z,29.40
2019-02-22T10:55:54.930Z,28.75
2019-02-22T10:58:25.709Z,26.62
2019-02-22T11:00:56.957Z,25.32
2019-02-22T11:03:27.993Z,24.70
2019-02-22T11:05:58.818Z,23.20
2019-02-22T11:08:29.987Z,20.60
2019-02-22T11:11:01.133Z,21.17
2019-02-22T11:13:31.922Z,23.57
2019-02-22T11:16:02.811Z,21.65
2019-02-22T11:18:33.593Z,23.02
2019-02-22T11:21:04.687Z,22.87
2019-02-22T11:23:35.474Z,24.37
2019-02-22T11:26:08.049Z,26.00
2019-02-22T11:28:39.156Z,21.62
2019-02-22T11:31:09.969Z,18.57
2019-02-22T11:33:40.771Z,18.75
2019-02-22T11:36:11.870Z,19.77
2019-02-22T11:38:42.691Z,18.42
2019-02-22T11:41:13.755Z,19.50
2019-02-22T11:43:44.562Z,18.85
2019-02-22T11:46:15.350Z,18.77
2019-02-22T11:48:46.487Z,17.73
2019-02-22T11:51:17.281Z,15.68
2019-02-22T11:53:48.087Z,17.27
2019-02-22T11:56:18.944Z,18.70
2019-02-22T11:58:49.746Z,18.20
2019-02-22T12:01:20.797Z,18.00
2019-02-22T12:03:51.582Z,16.70
2019-02-22T12:06:22.762Z,16.55
2019-02-22T12:08:53.575Z,15.50
2019-02-22T12:11:24.649Z,15.45
2019-02-22T12:13:55.476Z,15.23
2019-02-22T12:16:26.351Z,14.65
2019-02-22T12:18:57.266Z,13.25
2019-02-22T12:21:28.033Z,12.00
2019-02-22T12:23:58.847Z,11.57
2019-02-22T12:26:31.993Z,12.43
2019-02-22T12:29:02.127Z,9.78
2019-02-22T12:31:33.284Z,8.78
2019-02-22T12:34:04.130Z,9.63
2019-02-22T12:36:35.192Z,10.60
2019-02-22T12:39:06.929Z,10.28
2019-02-22T12:41:38.092Z,13.28
2019-02-22T12:44:08.918Z,13.58
2019-02-22T12:46:39.706Z,12.95
2019-02-22T12:49:10.514Z,12.82
2019-02-22T12:51:41.652Z,12.93
2019-02-22T12:54:12.455Z,11.55
2019-02-22T12:56:56.521Z,10.58
2019-02-22T12:59:16.056Z,10.30
2019-02-22T13:01:46.838Z,9.75
2019-02-22T13:04:17.647Z,9.90
2019-02-22T13:06:48.489Z,10.65
2019-02-22T13:09:19.297Z,10.40
2019-02-22T13:11:50.414Z,10.50
2019-02-22T13:14:21.226Z,8.88
2019-02-22T13:16:52.022Z,9.78
2019-02-22T13:19:22.833Z,9.00
2019-02-22T13:21:53.877Z,8.90
2019-02-22T13:24:24.916Z,9.65
2019-02-22T13:26:55.692Z,9.45
2019-02-22T13:29:26.799Z,8.83
2019-02-22T13:31:57.618Z,8.65
2019-02-22T13:34:28.687Z,8.53
2019-02-22T13:36:59.827Z,8.18
2019-02-22T13:39:30.603Z,8.58
2019-02-22T13:42:01.403Z,8.20
2019-02-22T13:44:32.451Z,7.08
2019-02-22T13:47:03.249Z,7.20
2019-02-22T13:49:34.432Z,6.03
2019-02-22T13:52:05.301Z,7.33
2019-02-22T13:54:36.062Z,6.15
2019-02-22T13:57:07.111Z,6.47
2019-02-22T13:59:38.200Z,6.47
2019-02-22T14:02:09.001Z,7.35
2019-02-22T14:04:39.765Z,6.53
2019-02-22T14:07:10.567Z,5.37
2019-02-22T14:09:41.326Z,5.42
2019-02-22T14:12:12.121Z,5.62
2019-02-22T14:14:43.138Z,5.50
2019-02-22T14:17:14.282Z,5.30
2019-02-22T14:19:45.042Z,5.67
2019-02-22T14:22:15.842Z,6.47
2019-02-22T14:24:46.635Z,5.85
2019-02-22T14:27:17.703Z,5.45
2019-02-22T14:29:48.782Z,5.67
2019-02-22T14:32:19.935Z,6.15
2019-02-22T14:34:50.689Z,6.00
2019-02-22T14:37:21.520Z,5.80
2019-02-22T14:40:01.055Z,5.80
2019-02-22T14:42:25.431Z,5.60
2019-02-22T14:44:56.201Z,5.87
2019-02-22T14:47:27.322Z,5.90
2019-02-22T14:49:58.083Z,5.72
2019-02-22T14:52:29.194Z,5.20
2019-02-22T14:54:59.971Z,5.55
2019-02-22T14:57:30.763Z,4.90
2019-02-22T15:00:01.568Z,5.33
2019-02-22T15:02:32.671Z,5.00
2019-02-22T15:05:04.112Z,4.58
2019-02-22T15:07:35.162Z,5.05
2019-02-22T15:10:08.171Z,4.67
2019-02-22T15:12:39.295Z,5.05
2019-02-22T15:15:18.018Z,5.50
2019-02-22T15:17:50.429Z,5.40
2019-02-22T15:20:21.546Z,4.45
2019-02-22T15:22:52.355Z,5.15
2019-02-22T15:25:23.145Z,4.50
2019-02-22T15:27:53.959Z,4.40
2019-02-22T15:30:24.806Z,4.15
2019-02-22T15:32:55.936Z,5.08
2019-02-22T15:35:26.979Z,4.03
2019-02-22T15:37:57.740Z,4.60
2019-02-22T15:40:28.862Z,4.70
2019-02-22T15:42:59.808Z,4.03
2019-02-22T15:45:30.649Z,4.10
2019-02-22T15:48:01.543Z,4.25
2019-02-22T15:50:32.379Z,3.98
2019-02-22T15:53:03.471Z,3.95
2019-02-22T15:55:34.286Z,4.05
2019-02-22T15:58:05.343Z,3.72
2019-02-22T16:00:36.636Z,4.17
2019-02-22T16:03:07.424Z,4.03
2019-02-22T16:05:42.559Z,4.67
2019-02-22T16:08:13.336Z,4.83
2019-02-22T16:10:44.128Z,4.97
2019-02-22T16:13:14.888Z,4.33
2019-02-22T16:15:45.675Z,4.60
2019-02-22T16:18:16.774Z,3.90
2019-02-22T16:20:47.566Z,4.10
2019-02-22T16:23:18.651Z,5.00
2019-02-22T16:25:49.692Z,4.67
2019-02-22T16:28:20.455Z,5.00
2019-02-22T16:30:51.278Z,4.45
2019-02-22T16:33:22.509Z,5.15
2019-02-22T16:35:53.568Z,4.42
2019-02-22T16:38:24.354Z,4.60
2019-02-22T16:40:55.142Z,5.37
2019-02-22T16:43:26.186Z,5.20
2019-02-22T16:45:57.228Z,5.37
2019-02-22T16:48:27.999Z,4.95
2019-02-22T16:50:58.818Z,5.22
2019-02-22T16:53:29.863Z,4.90
2019-02-22T16:56:00.663Z,5.83
2019-02-22T16:58:31.746Z,5.20
2019-02-22T17:01:02.605Z,5.08
2019-02-22T17:03:33.369Z,5.67
2019-02-22T17:06:04.229Z,5.15
2019-02-22T17:08:35.287Z,4.87
2019-02-22T17:11:06.147Z,5.28
2019-02-22T17:13:36.938Z,5.50
2019-02-22T17:16:08.010Z,7.12
2019-02-22T17:18:39.050Z,6.72
2019-02-22T17:21:09.839Z,5.80
2019-02-22T17:23:40.645Z,6.67
2019-02-22T17:26:13.481Z,5.85
2019-02-22T17:28:44.566Z,6.22
2019-02-22T17:31:15.350Z,6.80
2019-02-22T17:33:46.171Z,7.33
2019-02-22T17:36:26.434Z,8.35
2019-02-22T17:38:49.783Z,6.92
2019-02-22T17:41:20.811Z,8.00
2019-02-22T17:43:51.622Z,7.00
2019-02-22T17:46:22.389Z,7.70
2019-02-22T17:48:53.422Z,7.92
2019-02-22T17:51:24.226Z,7.80
2019-02-22T17:53:55.041Z,8.00
2019-02-22T17:56:25.802Z,7.45
2019-02-22T17:58:56.606Z,8.25
2019-02-22T18:01:27.619Z,8.63
2019-02-22T18:03:58.761Z,8.05
2019-02-22T18:06:29.539Z,8.03
2019-02-22T18:09:00.338Z,7.70
2019-02-22T18:11:31.109Z,7.00
2019-02-22T18:14:01.905Z,7.40
2019-02-22T18:16:32.681Z,7.15
2019-02-22T18:19:03.476Z,6.72
2019-02-22T18:21:34.218Z,7.17
2019-02-22T18:24:05.371Z,6.53
2019-02-22T18:26:37.775Z,7.47
2019-02-22T18:29:08.725Z,8.45
2019-02-22T18:31:39.498Z,7.83
2019-02-22T18:34:10.575Z,9.25
2019-02-22T18:36:41.382Z,10.53
2019-02-22T18:39:12.322Z,8.80
2019-02-22T18:41:43.130Z,9.20
2019-02-22T18:44:13.983Z,8.60
2019-02-22T18:46:44.785Z,8.70
2019-02-22T18:49:15.554Z,7.37
2019-02-22T18:51:46.358Z,6.37
2019-02-22T18:54:17.113Z,6.15
2019-02-22T18:56:48.232Z,6.10
2019-02-22T18:59:18.996Z,5.67
2019-02-22T19:01:49.790Z,6.90
2019-02-22T19:04:20.566Z,6.53
2019-02-22T19:06:51.362Z,6.95
2019-02-22T19:09:22.425Z,6.42
2019-02-22T19:11:53.213Z,7.05
2019-02-22T19:14:23.988Z,6.95
2019-02-22T19:16:55.043Z,6.55
2019-02-22T19:19:25.822Z,6.95
2019-02-22T19:21:56.922Z,6.37
2019-02-22T19:24:27.695Z,7.25
2019-02-22T19:26:59.975Z,5.90
2019-02-22T19:29:31.331Z,6.42
2019-02-22T19:32:02.200Z,7.03
2019-02-22T19:34:32.961Z,7.12
2019-02-22T19:37:03.754Z,5.92
2019-02-22T19:39:34.850Z,6.42
2019-02-22T19:42:05.889Z,6.28
2019-02-22T19:44:36.677Z,7.22
2019-02-22T19:47:07.486Z,6.92
2019-02-22T19:49:38.514Z,6.83
2019-02-22T19:52:09.287Z,6.72
2019-02-22T19:54:40.097Z,7.15
2019-02-22T19:57:10.865Z,6.33
2019-02-22T19:59:41.669Z,6.03
2019-02-22T20:02:12.455Z,6.70
2019-02-22T20:04:43.242Z,6.20
2019-02-22T20:07:14.010Z,6.08
2019-02-22T20:09:45.121Z,5.60
2019-02-22T20:12:15.887Z,5.87
2019-02-22T20:14:46.668Z,5.20
2019-02-22T20:17:17.438Z,5.37
2019-02-22T20:19:48.224Z,4.95
2019-02-22T20:22:19.319Z,5.05
2019-02-22T20:24:50.113Z,4.97
2019-02-22T20:27:20.870Z,4.70
2019-02-22T20:29:51.658Z,4.20
2019-02-22T20:32:22.683Z,4.53
2019-02-22T20:34:53.484Z,4.35
2019-02-22T20:37:24.318Z,4.87
2019-02-22T20:39:55.609Z,5.08
2019-02-22T20:42:26.645Z,4.62
2019-02-22T20:44:57.449Z,4.78
2019-02-22T20:47:28.531Z,5.03
2019-02-22T20:49:59.331Z,5.20
2019-02-22T20:52:31.739Z,5.33
2019-02-22T20:55:02.545Z,5.15
2019-02-22T20:57:34.837Z,4.72
2019-02-22T21:00:11.569Z,5.60
2019-02-22T21:02:42.459Z,4.80
2019-02-22T21:05:13.266Z,5.47
2019-02-22T21:07:44.746Z,5.37
2019-02-22T21:10:20.713Z,4.95
2019-02-22T21:12:51.779Z,5.25
2019-02-22T21:15:24.542Z,5.75
2019-02-22T21:17:55.427Z,5.95
2019-02-22T21:20:27.512Z,5.67
2019-02-22T21:22:59.303Z,5.20
2019-02-22T21:25:30.184Z,4.70
2019-02-22T21:28:01.004Z,5.05
2019-02-22T21:30:32.306Z,4.30
2019-02-22T21:33:03.265Z,5.20
2019-02-22T21:35:34.089Z,4.25
2019-02-22T21:38:04.886Z,5.03
2019-02-22T21:40:35.824Z,4.92
2019-02-22T21:43:06.613Z,5.15
2019-02-22T21:45:37.690Z,5.62
2019-02-22T21:48:08.488Z,5.55
2019-02-22T21:50:39.583Z,5.45
2019-02-22T21:53:10.611Z,4.47
2019-02-22T21:55:41.651Z,5.00
2019-02-22T21:58:12.430Z,5.53
2019-02-22T22:00:43.190Z,5.50
2019-02-22T22:03:13.978Z,5.47
2019-02-22T22:05:44.766Z,5.62
2019-02-22T22:08:15.539Z,6.60
2019-02-22T22:10:46.319Z,6.45
2019-02-22T22:13:17.110Z,7.08
2019-02-22T22:15:47.905Z,7.95
2019-02-22T22:18:18.716Z,7.22
2019-02-22T22:20:49.508Z,6.72
2019-02-22T22:23:20.267Z,6.70
2019-02-22T22:25:51.069Z,5.67
2019-02-22T22:28:21.838Z,7.55
2019-02-22T22:30:52.654Z,7.12
2019-02-22T22:33:23.410Z,9.18
2019-02-22T22:35:53.639Z,8.27
2019-02-22T22:38:23.825Z,7.70
2019-02-22T22:40:54.638Z,6.70
2019-02-22T22:43:25.138Z,6.27
2019-02-22T22:45:55.367Z,6.87
2019-02-22T22:48:26.138Z,6.37
2019-02-22T22:50:56.937Z,7.05
2019-02-22T22:53:27.129Z,6.43
2019-02-22T22:55:57.709Z,6.83
2019-02-22T22:58:28.230Z,6.00
2019-02-22T23:01:03.113Z,6.33
2019-02-22T23:03:33.361Z,5.83
2019-02-22T23:06:03.849Z,5.27
2019-02-22T23:08:34.042Z,5.33
2019-02-22T23:11:04.607Z,5.90
2019-02-22T23:13:34.789Z,6.00
2019-02-22T23:16:06.875Z,5.80
2019-02-22T23:18:37.208Z,6.33
2019-02-22T23:21:07.438Z,6.53
2019-02-22T23:23:37.634Z,6.50
2019-02-22T23:26:08.189Z,7.10
2019-02-22T23:28:38.726Z,7.03
2019-02-22T23:31:09.247Z,7.10
2019-02-22T23:33:39.780Z,7.30
2019-02-22T23:36:10.039Z,6.63
2019-02-22T23:38:40.222Z,5.90
2019-02-22T23:41:10.513Z,5.93
2019-02-22T23:43:40.742Z,6.10
2019-02-22T23:46:10.938Z,5.60
2019-02-22T23:48:41.438Z,5.33
2019-02-22T23:51:11.623Z,5.83
2019-02-22T23:53:41.844Z,6.10
2019-02-22T23:56:12.056Z,5.20
2019-02-22T23:58:42.554Z,5.87
